Time;durP1;ratioP1;P1;durP2;ratioP2;P2;SDS_P1;SDS_P2;PMS_P1;PMS_P2;Temp;Humidity;BMP_temperature;BMP_pressure;BME280_temperature;BME280_humidity;BME280_pressure;Samples;Min_cycle;Max_cycle;Signal;HPM_P1;HPM_P2
2022/03/24 00:02:28;;;;;;;19.30;9.50;;;;;7.90;102344.00;;;;5096316;27;20256;-68
2022/03/24 00:05:14;;;;;;;22.47;10.47;;;;;7.90;102339.00;;;;5099463;28;20305;-69
2022/03/24 00:08:01;;;;;;;20.20;10.60;;;;;7.90;102338.00;;;;5088568;28;20227;-68
2022/03/24 00:10:48;;;;;;;25.17;11.03;;;;;7.90;102338.00;;;;5081112;28;20307;-69
2022/03/24 00:13:36;;;;;;;21.23;10.63;;;;;7.80;102337.00;;;;5096345;27;20232;-70
2022/03/24 00:16:24;;;;;;;22.63;11.07;;;;;7.80;102328.00;;;;5038122;28;20331;-69
2022/03/24 00:19:10;;;;;;;24.03;11.10;;;;;7.80;102312.00;;;;5042745;28;20225;-66
2022/03/24 00:21:57;;;;;;;23.63;10.53;;;;;7.80;102335.00;;;;5059750;28;20306;-70
2022/03/24 00:24:55;;;;;;;24.03;10.13;;;;;7.60;102330.00;;;;5061850;28;20288;-70
2022/03/24 00:27:42;;;;;;;29.00;11.30;;;;;7.60;102322.00;;;;5064727;28;20320;-69
2022/03/24 00:30:29;;;;;;;25.03;11.10;;;;;7.50;102321.00;;;;5060806;28;20240;-69
2022/03/24 00:33:16;;;;;;;20.10;10.27;;;;;7.50;102310.00;;;;5064010;28;20224;-69
2022/03/24 00:36:02;;;;;;;23.87;10.90;;;;;7.50;102312.00;;;;5087632;28;20280;-68
2022/03/24 00:38:52;;;;;;;22.43;10.43;;;;;7.50;102309.00;;;;5079154;28;20233;-68
2022/03/24 00:41:39;;;;;;;20.07;10.70;;;;;7.40;102319.00;;;;5094023;28;20235;-67
2022/03/24 00:44:26;;;;;;;21.57;10.60;;;;;7.30;102312.00;;;;5099573;27;20234;-67
2022/03/24 00:47:14;;;;;;;22.00;10.20;;;;;7.20;102307.00;;;;5099983;27;20833;-69
2022/03/24 00:50:02;;;;;;;22.10;10.57;;;;;7.30;102320.00;;;;5087689;28;20588;-68
2022/03/24 00:52:48;;;;;;;20.50;10.03;;;;;7.20;102320.00;;;;5080618;28;20227;-70
2022/03/24 00:55:35;;;;;;;25.73;10.37;;;;;7.20;102329.00;;;;5092879;28;20729;-68
2022/03/24 00:58:21;;;;;;;22.87;9.93;;;;;7.10;102312.00;;;;5098138;27;20600;-68
2022/03/24 01:01:10;;;;;;;20.90;10.23;;;;;7.10;102308.00;;;;5086138;28;20357;-70
2022/03/24 01:03:57;;;;;;;21.57;10.00;;;;;7.00;102262.00;;;;5077784;27;20234;-69
2022/03/24 01:06:45;;;;;;;23.23;10.97;;;;;6.90;102276.00;;;;5075444;28;20352;-69
2022/03/24 01:09:31;;;;;;;18.60;9.83;;;;;6.90;102292.00;;;;5087326;27;20239;-70
2022/03/24 01:12:18;;;;;;;17.40;8.97;;;;;6.80;102298.00;;;;5100426;28;20364;-70
2022/03/24 01:15:05;;;;;;;23.33;11.13;;;;;6.80;102300.00;;;;5091033;28;20306;-65
2022/03/24 01:17:52;;;;;;;22.43;10.43;;;;;6.70;102303.00;;;;5082184;28;20412;-70
2022/03/24 01:20:38;;;;;;;27.10;11.13;;;;;6.70;102288.00;;;;5102740;28;20353;-69
2022/03/24 01:23:26;;;;;;;24.10;11.23;;;;;6.70;102292.00;;;;5097102;28;20358;-67
2022/03/24 01:26:14;;;;;;;21.67;11.20;;;;;6.70;102297.00;;;;5089146;28;20247;-68
2022/03/24 01:29:00;;;;;;;24.83;10.60;;;;;6.70;102287.00;;;;5056517;28;20230;-68
2022/03/24 01:31:46;;;;;;;21.10;10.30;;;;;6.60;102287.00;;;;5061780;28;20722;-66
2022/03/24 01:34:33;;;;;;;21.67;11.33;;;;;6.50;102295.00;;;;5072695;28;20284;-68
2022/03/24 01:37:19;;;;;;;18.60;9.80;;;;;6.50;102290.00;;;;5082459;28;20230;-67
2022/03/24 01:40:10;;;;;;;22.17;10.87;;;;;6.50;102290.00;;;;5064668;28;20675;-67
2022/03/24 01:42:57;;;;;;;22.33;9.87;;;;;6.50;102281.00;;;;5064106;28;20232;-67
2022/03/24 01:45:43;;;;;;;24.43;10.90;;;;;6.50;102278.00;;;;5066817;28;20329;-68
2022/03/24 01:48:30;;;;;;;21.73;10.03;;;;;6.40;102284.00;;;;5074036;28;20231;-69
2022/03/24 01:51:16;;;;;;;23.00;10.83;;;;;6.40;102288.00;;;;5072007;28;20235;-68
2022/03/24 01:54:02;;;;;;;24.27;10.80;;;;;6.40;102283.00;;;;5059269;28;20223;-68
2022/03/24 01:56:50;;;;;;;23.57;10.63;;;;;6.40;102264.00;;;;5075392;28;20231;-68
2022/03/24 01:59:37;;;;;;;23.20;10.30;;;;;6.30;102275.00;;;;5073576;28;20833;-68
2022/03/24 02:02:23;;;;;;;22.03;10.93;;;;;6.30;102250.00;;;;5068298;28;20247;-69
2022/03/24 02:05:10;;;;;;;23.23;10.60;;;;;6.20;102278.00;;;;5092030;28;20615;-68
2022/03/24 02:07:58;;;;;;;22.60;9.93;;;;;6.20;102282.00;;;;5063710;28;20583;-68
2022/03/24 02:10:45;;;;;;;18.70;9.13;;;;;6.20;102285.00;;;;5099536;28;20720;-68
2022/03/24 02:13:33;;;;;;;20.00;9.90;;;;;6.20;102280.00;;;;5097968;28;20243;-66
2022/03/24 02:16:19;;;;;;;19.83;10.00;;;;;6.20;102280.00;;;;5104173;28;20242;-67
2022/03/24 02:19:13;;;;;;;22.40;11.40;;;;;6.20;102276.00;;;;5082385;28;20357;-69
2022/03/24 02:22:10;;;;;;;25.60;11.13;;;;;6.00;102277.00;;;;5089278;28;20226;-69
2022/03/24 02:24:56;;;;;;;23.47;10.67;;;;;6.00;102288.00;;;;5104149;28;20921;-70
2022/03/24 02:27:44;;;;;;;20.97;10.53;;;;;6.00;102288.00;;;;5103731;28;20238;-69
2022/03/24 02:30:30;;;;;;;27.50;11.47;;;;;6.00;102286.00;;;;5103525;28;20230;-67
2022/03/24 02:33:21;;;;;;;21.83;10.27;;;;;5.90;102270.00;;;;5101552;28;20229;-71
2022/03/24 02:36:07;;;;;;;26.40;10.77;;;;;5.80;102271.00;;;;5091112;28;20231;-66
2022/03/24 02:38:55;;;;;;;23.30;10.73;;;;;5.90;102271.00;;;;5085235;28;20242;-68
2022/03/24 02:41:46;;;;;;;22.60;10.20;;;;;6.00;102278.00;;;;5101700;28;20276;-69
2022/03/24 02:44:33;;;;;;;24.20;11.67;;;;;5.90;102268.00;;;;5100834;28;20273;-67
2022/03/24 02:47:20;;;;;;;24.00;11.57;;;;;5.80;102267.00;;;;5103989;28;20593;-67
2022/03/24 02:50:09;;;;;;;21.20;11.10;;;;;5.70;102275.00;;;;5072370;28;20235;-68
2022/03/24 02:52:55;;;;;;;25.03;10.30;;;;;5.60;102272.00;;;;5068155;28;20230;-66
2022/03/24 02:55:42;;;;;;;20.43;10.83;;;;;5.60;102275.00;;;;5082025;28;20235;-68
2022/03/24 02:58:29;;;;;;;24.10;11.53;;;;;5.50;102274.00;;;;5083193;28;20702;-69
2022/03/24 03:01:15;;;;;;;24.10;11.57;;;;;5.50;102280.00;;;;5074818;28;20223;-69
2022/03/24 03:04:02;;;;;;;21.97;10.10;;;;;5.40;102262.00;;;;5068718;28;20235;-70
2022/03/24 03:06:48;;;;;;;21.67;9.73;;;;;5.40;102272.00;;;;5084027;28;20254;-69
2022/03/24 03:09:37;;;;;;;18.27;9.40;;;;;5.70;102271.00;;;;5086382;28;20602;-69
2022/03/24 03:12:26;;;;;;;25.23;11.60;;;;;5.60;102273.00;;;;5078909;28;20231;-67
2022/03/24 03:15:12;;;;;;;19.70;10.67;;;;;5.40;102269.00;;;;5086700;28;20322;-69
2022/03/24 03:17:59;;;;;;;20.77;10.90;;;;;5.40;102269.00;;;;5078647;28;20242;-71
2022/03/24 03:20:45;;;;;;;24.80;11.83;;;;;5.20;102272.00;;;;5088897;28;20235;-68
2022/03/24 03:23:31;;;;;;;26.50;11.03;;;;;5.20;102233.00;;;;5088695;28;20316;-67
2022/03/24 03:26:19;;;;;;;23.77;11.43;;;;;5.30;102279.00;;;;5086621;28;20680;-69
2022/03/24 03:29:07;;;;;;;21.77;11.07;;;;;5.30;102282.00;;;;5079452;28;20243;-69
2022/03/24 03:31:54;;;;;;;20.47;9.97;;;;;5.30;102280.00;;;;5086229;28;20318;-69
2022/03/24 03:34:41;;;;;;;21.13;11.30;;;;;5.40;102288.00;;;;5086090;28;20234;-69
2022/03/24 03:37:28;;;;;;;22.70;10.27;;;;;5.10;102278.00;;;;5104913;28;20233;-75
2022/03/24 03:40:15;;;;;;;23.43;11.20;;;;;5.10;102281.00;;;;5087411;28;20222;-69
2022/03/24 03:43:01;;;;;;;20.00;10.87;;;;;5.10;102275.00;;;;5091260;28;20218;-68
2022/03/24 03:45:49;;;;;;;24.57;10.60;;;;;5.10;102277.00;;;;5106500;27;20291;-70
2022/03/24 03:48:36;;;;;;;21.53;10.73;;;;;5.10;102276.00;;;;5103709;27;20246;-69
2022/03/24 03:51:22;;;;;;;24.50;11.30;;;;;4.90;102273.00;;;;5106305;27;20218;-68
2022/03/24 03:54:09;;;;;;;24.63;11.60;;;;;5.00;102284.00;;;;5089137;27;20300;-68
2022/03/24 03:56:55;;;;;;;20.77;10.60;;;;;5.00;102280.00;;;;5088613;28;20704;-69
2022/03/24 03:59:42;;;;;;;25.10;11.30;;;;;4.90;102276.00;;;;5100688;28;20316;-68
2022/03/24 04:02:30;;;;;;;27.73;11.40;;;;;4.80;102277.00;;;;5106349;27;20230;-71
2022/03/24 04:05:23;;;;;;;24.80;12.13;;;;;5.00;102279.00;;;;5094142;28;20713;-69
2022/03/24 04:08:11;;;;;;;22.97;10.63;;;;;4.90;102291.00;;;;5092881;28;20222;-68
2022/03/24 04:10:57;;;;;;;22.83;11.37;;;;;4.80;102275.00;;;;5106417;27;20293;-69
2022/03/24 04:13:46;;;;;;;20.67;11.20;;;;;4.70;102276.00;;;;5098778;28;20601;-68
2022/03/24 04:16:33;;;;;;;23.40;11.37;;;;;4.70;102287.00;;;;5098990;28;20974;-68
2022/03/24 04:19:21;;;;;;;23.90;11.47;;;;;4.70;102282.00;;;;5095569;28;20356;-70
2022/03/24 04:22:07;;;;;;;21.63;10.13;;;;;4.60;102281.00;;;;5092529;27;20234;-69
2022/03/24 04:24:54;;;;;;;21.93;10.63;;;;;4.60;102280.00;;;;5104336;28;20238;-69
2022/03/24 04:27:40;;;;;;;21.40;10.90;;;;;4.60;102278.00;;;;5105845;27;20361;-69
2022/03/24 04:30:27;;;;;;;24.83;11.03;;;;;4.60;102275.00;;;;5106142;27;20222;-68
2022/03/24 04:33:15;;;;;;;21.87;10.47;;;;;4.50;102273.00;;;;5077144;28;20594;-68
2022/03/24 04:36:05;;;;;;;23.43;10.87;;;;;4.50;102275.00;;;;5069331;28;20608;-71
2022/03/24 04:38:51;;;;;;;24.73;11.23;;;;;4.40;102270.00;;;;5085267;28;20227;-66
2022/03/24 04:41:38;;;;;;;27.07;12.00;;;;;4.40;102265.00;;;;5082236;28;20235;-70
2022/03/24 04:44:24;;;;;;;23.43;11.67;;;;;4.40;102265.00;;;;5085257;28;20330;-69
2022/03/24 04:47:10;;;;;;;21.97;11.00;;;;;4.40;102277.00;;;;5091680;27;20237;-69
2022/03/24 04:49:56;;;;;;;24.57;10.70;;;;;4.40;102261.00;;;;5105273;28;20226;-69
2022/03/24 04:52:45;;;;;;;25.87;11.63;;;;;4.40;102273.00;;;;5102515;27;20231;-71
2022/03/24 04:55:31;;;;;;;28.00;11.40;;;;;4.50;102275.00;;;;5101270;28;20229;-68
2022/03/24 04:58:17;;;;;;;21.90;10.80;;;;;4.40;102264.00;;;;5102615;28;20228;-69
2022/03/24 05:01:03;;;;;;;25.13;10.80;;;;;4.30;102261.00;;;;5085487;28;20718;-70
2022/03/24 05:03:49;;;;;;;26.37;11.30;;;;;4.30;102258.00;;;;5101697;27;20225;-69
2022/03/24 05:06:36;;;;;;;19.20;10.23;;;;;4.30;102285.00;;;;5093409;28;20297;-69
2022/03/24 05:09:23;;;;;;;21.70;10.67;;;;;4.30;102267.00;;;;5093617;28;20277;-70
2022/03/24 05:12:10;;;;;;;25.03;11.53;;;;;4.20;102269.00;;;;5090190;28;20602;-69
2022/03/24 05:14:56;;;;;;;22.37;10.43;;;;;4.10;102263.00;;;;5097363;28;20261;-70
2022/03/24 05:17:43;;;;;;;21.37;11.23;;;;;4.10;102273.00;;;;5102308;28;20234;-69
2022/03/24 05:20:29;;;;;;;21.27;10.70;;;;;4.10;102269.00;;;;5104190;28;20230;-70
2022/03/24 05:23:15;;;;;;;21.57;10.57;;;;;4.10;102272.00;;;;5089134;28;20259;-71
2022/03/24 05:26:03;;;;;;;25.40;9.90;;;;;4.10;102266.00;;;;5101365;28;20234;-71
2022/03/24 05:28:49;;;;;;;24.77;10.93;;;;;3.90;102276.00;;;;5104019;28;20272;-68
2022/03/24 05:31:35;;;;;;;25.40;10.40;;;;;4.00;102280.00;;;;5104297;28;20237;-69
2022/03/24 05:34:21;;;;;;;19.87;10.53;;;;;4.00;102279.00;;;;5095599;28;20222;-69
2022/03/24 05:37:07;;;;;;;25.40;11.27;;;;;4.10;102277.00;;;;5089091;28;20246;-69
2022/03/24 05:39:54;;;;;;;22.10;10.13;;;;;4.10;102280.00;;;;5104467;28;20296;-70
2022/03/24 05:42:41;;;;;;;20.53;9.97;;;;;4.00;102278.00;;;;5104135;28;20259;-71
2022/03/24 05:45:28;;;;;;;22.93;11.80;;;;;4.20;102290.00;;;;5104448;28;20373;-69
2022/03/24 05:48:14;;;;;;;22.47;10.73;;;;;4.00;102276.00;;;;5090770;28;20819;-72
2022/03/24 05:51:01;;;;;;;23.77;11.20;;;;;4.00;102278.00;;;;5101246;28;20318;-69
2022/03/24 05:53:47;;;;;;;23.60;11.50;;;;;4.10;102277.00;;;;5099915;28;20296;-70
2022/03/24 05:56:33;;;;;;;25.23;11.03;;;;;4.00;102279.00;;;;5104036;28;20237;-70
2022/03/24 05:59:21;;;;;;;20.63;10.97;;;;;4.00;102287.00;;;;5091644;28;20278;-69
2022/03/24 06:02:07;;;;;;;24.07;11.40;;;;;4.00;102282.00;;;;5076214;28;20328;-70
2022/03/24 06:04:54;;;;;;;22.90;10.10;;;;;4.10;102291.00;;;;5103836;28;20296;-70
2022/03/24 06:07:40;;;;;;;27.70;11.43;;;;;4.20;102290.00;;;;5100254;28;20238;-69
2022/03/24 06:10:26;;;;;;;24.53;11.63;;;;;4.20;102290.00;;;;5104028;28;20260;-70
2022/03/24 06:13:13;;;;;;;23.83;11.10;;;;;4.30;102285.00;;;;5085559;28;20358;-70
2022/03/24 06:16:01;;;;;;;28.20;11.17;;;;;4.40;102284.00;;;;5101066;28;20718;-71
2022/03/24 06:18:48;;;;;;;24.10;11.67;;;;;4.40;102286.00;;;;5103758;28;20948;-70
2022/03/24 06:21:34;;;;;;;26.20;11.73;;;;;4.50;102291.00;;;;5107292;28;20746;-69
2022/03/24 06:24:20;;;;;;;27.17;12.10;;;;;4.50;102302.00;;;;5094695;28;20225;-70
2022/03/24 06:27:07;;;;;;;24.87;11.40;;;;;4.50;102289.00;;;;5089772;28;20245;-70
2022/03/24 06:29:53;;;;;;;28.03;12.17;;;;;4.70;102293.00;;;;5110090;28;20245;-69
2022/03/24 06:32:41;;;;;;;22.67;11.13;;;;;4.70;102293.00;;;;5110528;28;20296;-68
2022/03/24 06:35:27;;;;;;;23.97;11.97;;;;;4.90;102295.00;;;;5101770;28;20234;-71
2022/03/24 06:38:14;;;;;;;22.23;10.47;;;;;5.00;102291.00;;;;5109968;28;20229;-72
2022/03/24 06:41:00;;;;;;;21.03;11.27;;;;;5.00;102281.00;;;;5133211;28;20230;-70
2022/03/24 06:43:47;;;;;;;22.37;10.70;;;;;5.10;102306.00;;;;5132461;28;20259;-71
2022/03/24 06:46:34;;;;;;;24.97;10.90;;;;;5.30;102303.00;;;;5123232;28;20248;-70
2022/03/24 06:49:21;;;;;;;25.53;11.97;;;;;5.50;102309.00;;;;5122107;28;20233;-70
2022/03/24 06:52:08;;;;;;;21.73;11.10;;;;;5.60;102312.00;;;;5125914;28;20237;-72
2022/03/24 06:54:55;;;;;;;21.90;12.00;;;;;5.60;102318.00;;;;5131173;28;20245;-69
2022/03/24 06:57:43;;;;;;;22.33;10.67;;;;;5.80;102299.00;;;;5136821;28;20238;-70
2022/03/24 07:00:29;;;;;;;25.63;12.00;;;;;5.90;102312.00;;;;5134501;28;20249;-71
2022/03/24 07:03:16;;;;;;;26.63;12.90;;;;;6.00;102317.00;;;;5132177;28;20246;-72
2022/03/24 07:06:04;;;;;;;28.33;12.93;;;;;6.20;102314.00;;;;5078055;28;20231;-69
2022/03/24 07:08:50;;;;;;;31.43;13.97;;;;;6.30;102315.00;;;;5078313;28;20227;-69
2022/03/24 07:11:37;;;;;;;27.10;13.93;;;;;6.40;102313.00;;;;5082755;28;20813;-71
2022/03/24 07:14:23;;;;;;;29.67;13.80;;;;;6.50;102316.00;;;;5069091;28;20230;-71
2022/03/24 07:17:10;;;;;;;25.97;13.43;;;;;6.60;102322.00;;;;5069266;28;20702;-71
2022/03/24 07:19:57;;;;;;;36.17;13.27;;;;;6.70;102330.00;;;;5088161;28;20222;-71
2022/03/24 07:22:46;;;;;;;27.77;13.50;;;;;6.80;102315.00;;;;5104811;27;20356;-70
2022/03/24 07:25:32;;;;;;;24.87;13.03;;;;;6.90;102327.00;;;;5097383;27;20288;-71
2022/03/24 07:28:19;;;;;;;25.57;12.63;;;;;7.10;102324.00;;;;5070294;28;20226;-70
2022/03/24 07:31:10;;;;;;;28.87;13.37;;;;;7.20;102329.00;;;;5085997;28;20238;-69
2022/03/24 07:33:57;;;;;;;31.50;15.83;;;;;7.30;102342.00;;;;5048341;28;20383;-70
2022/03/24 07:36:44;;;;;;;31.73;14.47;;;;;7.40;102331.00;;;;5099954;28;20316;-67
2022/03/24 07:39:32;;;;;;;31.30;14.10;;;;;7.60;102329.00;;;;5091736;28;20302;-71
2022/03/24 07:42:19;;;;;;;30.53;14.37;;;;;7.70;102331.00;;;;5093729;27;20600;-71
2022/03/24 07:45:07;;;;;;;32.33;13.60;;;;;7.90;102340.00;;;;5089719;28;20222;-70
2022/03/24 07:48:09;;;;;;;28.40;13.17;;;;;8.10;102321.00;;;;5086523;28;20231;-72
2022/03/24 07:50:57;;;;;;;30.53;12.97;;;;;8.20;102332.00;;;;5086412;28;20222;-71
2022/03/24 07:53:53;;;;;;;28.23;13.93;;;;;8.30;102332.00;;;;5082043;28;20236;-69
2022/03/24 07:56:40;;;;;;;28.63;13.17;;;;;8.40;102331.00;;;;5067588;28;20239;-69
2022/03/24 07:59:26;;;;;;;28.57;13.53;;;;;8.50;102335.00;;;;5094554;28;20372;-72
2022/03/24 08:02:13;;;;;;;29.37;14.03;;;;;8.70;102332.00;;;;5091108;27;20216;-72
2022/03/24 08:04:59;;;;;;;28.43;13.77;;;;;8.90;102336.00;;;;5106628;27;20309;-70
2022/03/24 08:07:46;;;;;;;29.43;13.83;;;;;9.00;102344.00;;;;5103079;27;20245;-72
2022/03/24 08:10:32;;;;;;;29.93;13.93;;;;;9.10;102342.00;;;;5105549;28;20637;-70
2022/03/24 08:13:21;;;;;;;30.47;14.27;;;;;9.20;102340.00;;;;5091669;28;20290;-71
2022/03/24 08:16:08;;;;;;;28.80;14.13;;;;;9.30;102340.00;;;;5106245;28;20564;-70
2022/03/24 08:18:54;;;;;;;28.20;14.10;;;;;9.50;102335.00;;;;5103539;28;20227;-70
2022/03/24 08:21:40;;;;;;;31.63;14.13;;;;;9.70;102343.00;;;;5105911;28;20253;-71
2022/03/24 08:24:27;;;;;;;32.50;15.00;;;;;9.90;102354.00;;;;5106709;27;20788;-70
2022/03/24 08:27:13;;;;;;;33.57;15.60;;;;;10.10;102338.00;;;;5079491;28;20310;-68
2022/03/24 08:30:01;;;;;;;31.43;15.23;;;;;10.20;102348.00;;;;5082793;28;20234;-70
2022/03/24 08:32:48;;;;;;;31.17;15.27;;;;;10.30;102345.00;;;;5099767;27;20937;-69
2022/03/24 08:35:34;;;;;;;30.37;15.23;;;;;10.40;102353.00;;;;5105886;28;20758;-70
2022/03/24 08:38:20;;;;;;;34.80;16.47;;;;;10.60;102345.00;;;;5091444;28;20222;-70
2022/03/24 08:41:06;;;;;;;32.70;15.10;;;;;10.70;102352.00;;;;5087956;28;20227;-69
2022/03/24 08:43:52;;;;;;;34.00;15.20;;;;;10.80;102349.00;;;;5085094;28;20231;-72
2022/03/24 08:46:40;;;;;;;32.37;15.40;;;;;11.10;102348.00;;;;5085027;28;20235;-71
2022/03/24 08:49:26;;;;;;;33.80;16.13;;;;;11.30;102354.00;;;;5085466;28;20282;-71
2022/03/24 08:52:13;;;;;;;34.07;16.30;;;;;11.40;102354.00;;;;5068230;28;20231;-72
2022/03/24 08:54:59;;;;;;;37.60;16.83;;;;;11.50;102347.00;;;;5079213;28;20282;-71
2022/03/24 08:57:46;;;;;;;33.10;16.30;;;;;11.80;102347.00;;;;5073263;28;20228;-69
2022/03/24 09:00:33;;;;;;;32.17;16.80;;;;;12.00;102348.00;;;;5082152;28;20235;-70
2022/03/24 09:03:21;;;;;;;32.90;16.47;;;;;12.10;102353.00;;;;5083179;28;20277;-70
2022/03/24 09:06:08;;;;;;;34.13;16.53;;;;;12.20;102359.00;;;;5092941;28;20234;-70
2022/03/24 09:08:54;;;;;;;33.10;16.57;;;;;12.30;102360.00;;;;5084840;28;20732;-71
2022/03/24 09:11:40;;;;;;;31.10;16.30;;;;;12.50;102360.00;;;;5091838;28;20226;-70
2022/03/24 09:14:27;;;;;;;32.13;16.50;;;;;12.60;102366.00;;;;5105902;28;20234;-71
2022/03/24 09:17:13;;;;;;;36.83;16.70;;;;;12.70;102366.00;;;;5104207;27;20230;-70
2022/03/24 09:20:01;;;;;;;29.93;15.33;;;;;13.00;102365.00;;;;5103391;28;20230;-71
2022/03/24 09:22:49;;;;;;;34.90;16.50;;;;;13.20;102368.00;;;;5104658;27;20234;-70
2022/03/24 09:25:38;;;;;;;33.17;16.50;;;;;13.40;102370.00;;;;5105163;28;20320;-70
2022/03/24 09:28:26;;;;;;;32.50;15.87;;;;;13.40;102364.00;;;;5091154;28;20246;-70
2022/03/24 09:31:12;;;;;;;33.67;15.70;;;;;13.50;102376.00;;;;5086432;27;20223;-72
2022/03/24 09:33:59;;;;;;;35.73;16.60;;;;;13.50;102367.00;;;;5081076;28;20232;-69
2022/03/24 09:36:47;;;;;;;33.90;16.20;;;;;13.60;102371.00;;;;5067071;28;20232;-67
2022/03/24 09:39:33;;;;;;;37.47;16.67;;;;;13.60;102371.00;;;;5070591;28;20244;-69
2022/03/24 09:42:21;;;;;;;33.30;16.43;;;;;13.80;102377.00;;;;5072557;28;20324;-71
2022/03/24 09:45:10;;;;;;;31.30;15.93;;;;;14.00;102370.00;;;;5101526;28;20893;-72
2022/03/24 09:47:57;;;;;;;35.73;17.20;;;;;14.30;102356.00;;;;5104788;27;20238;-69
2022/03/24 09:50:44;;;;;;;34.20;16.57;;;;;14.30;102381.00;;;;5104720;28;20292;-70
2022/03/24 09:53:32;;;;;;;29.83;15.40;;;;;14.50;102372.00;;;;5099125;28;20220;-70
2022/03/24 09:56:19;;;;;;;28.20;15.47;;;;;14.50;102368.00;;;;5104628;28;20229;-70
2022/03/24 09:59:07;;;;;;;35.20;17.10;;;;;14.70;102369.00;;;;5081101;28;20229;-69
2022/03/24 10:01:55;;;;;;;30.27;15.63;;;;;15.00;102370.00;;;;5068817;28;20302;-72
2022/03/24 10:04:47;;;;;;;33.43;16.53;;;;;15.00;102372.00;;;;5060055;28;20259;-71
2022/03/24 10:07:36;;;;;;;35.00;15.73;;;;;15.20;102373.00;;;;5075780;28;20242;-71
2022/03/24 10:10:25;;;;;;;32.23;15.93;;;;;15.40;102385.00;;;;5088376;28;20242;-69
2022/03/24 10:13:12;;;;;;;34.63;16.53;;;;;15.60;102374.00;;;;5100855;28;20254;-71
2022/03/24 10:15:58;;;;;;;29.30;15.90;;;;;15.80;102372.00;;;;5103855;28;20243;-70
2022/03/24 10:19:01;;;;;;;32.13;15.83;;;;;15.70;102387.00;;;;5089293;28;20981;-71
2022/03/24 10:21:49;;;;;;;32.90;15.53;;;;;16.10;102371.00;;;;5086841;28;20315;-71
2022/03/24 10:24:41;;;;;;;32.13;15.60;;;;;16.20;102370.00;;;;5092180;28;20323;-71
2022/03/24 10:27:30;;;;;;;32.43;16.67;;;;;16.40;102378.00;;;;5064211;28;20244;-70
2022/03/24 10:30:18;;;;;;;35.03;17.80;;;;;16.40;102368.00;;;;5095091;28;20245;-71
2022/03/24 10:33:05;;;;;;;31.10;16.40;;;;;16.50;102371.00;;;;5097874;28;20224;-69
2022/03/24 10:36:04;;;;;;;30.53;15.97;;;;;16.50;102375.00;;;;5105492;28;20372;-70
2022/03/24 10:38:52;;;;;;;27.73;15.17;;;;;16.50;102368.00;;;;5078334;28;20223;-69
2022/03/24 10:41:40;;;;;;;30.90;16.40;;;;;16.70;102367.00;;;;5095500;28;20304;-71
2022/03/24 10:44:27;;;;;;;32.13;16.20;;;;;16.80;102370.00;;;;5088542;28;20714;-68
2022/03/24 10:47:38;;;;;;;29.93;15.37;;;;;16.80;102367.00;;;;5105059;28;20344;-68
2022/03/24 10:50:28;;;;;;;31.57;16.67;;;;;16.70;102363.00;;;;5087299;28;20692;-71
2022/03/24 10:53:16;;;;;;;30.73;16.13;;;;;16.80;102358.00;;;;5084900;28;20241;-71
2022/03/24 10:56:11;;;;;;;27.67;15.20;;;;;17.10;102357.00;;;;5079782;28;20969;-72
2022/03/24 10:59:04;;;;;;;29.57;16.10;;;;;17.30;102362.00;;;;5085411;28;20731;-71
2022/03/24 11:01:53;;;;;;;26.80;14.57;;;;;17.40;102358.00;;;;5085109;28;20231;-71
2022/03/24 11:04:40;;;;;;;24.90;14.50;;;;;17.40;102355.00;;;;5104765;28;20231;-70
2022/03/24 11:07:27;;;;;;;29.87;15.73;;;;;17.50;102355.00;;;;5100832;28;20284;-69
2022/03/24 11:10:15;;;;;;;27.33;15.27;;;;;17.80;102363.00;;;;5104660;28;20717;-69
2022/03/24 11:13:04;;;;;;;27.17;15.13;;;;;17.80;102354.00;;;;5103400;28;20681;-70
2022/03/24 11:15:52;;;;;;;30.50;16.20;;;;;18.00;102351.00;;;;5107449;27;20361;-70
2022/03/24 11:18:40;;;;;;;29.10;15.30;;;;;17.90;102356.00;;;;5102442;27;20865;-69
2022/03/24 11:21:34;;;;;;;28.83;15.73;;;;;17.90;102356.00;;;;5093597;28;20233;-70
2022/03/24 11:24:21;;;;;;;28.77;15.47;;;;;17.90;102356.00;;;;5108127;27;20328;-71
2022/03/24 11:27:08;;;;;;;30.20;15.43;;;;;18.10;102350.00;;;;5105799;27;20712;-70
2022/03/24 11:29:54;;;;;;;29.50;15.37;;;;;18.10;102339.00;;;;5108475;28;20234;-70
2022/03/24 11:32:42;;;;;;;27.63;15.60;;;;;18.40;102352.00;;;;5099223;27;20440;-70
2022/03/24 11:35:33;;;;;;;29.67;14.97;;;;;18.30;102340.00;;;;5108176;28;20239;-71
2022/03/24 11:38:21;;;;;;;31.57;15.13;;;;;18.60;102340.00;;;;5088219;28;20355;-67
2022/03/24 11:41:12;;;;;;;29.03;16.17;;;;;18.60;102331.00;;;;5084714;28;20600;-70
2022/03/24 11:44:04;;;;;;;28.10;15.63;;;;;18.80;102332.00;;;;5079312;28;20235;-71
2022/03/24 11:46:55;;;;;;;28.10;15.40;;;;;18.80;102328.00;;;;5087575;28;20235;-68
2022/03/24 11:49:41;;;;;;;25.83;14.33;;;;;18.90;102324.00;;;;5077917;28;20309;-71
2022/03/24 11:52:29;;;;;;;34.57;16.80;;;;;19.20;102321.00;;;;5072736;28;20223;-70
2022/03/24 11:55:16;;;;;;;30.43;15.67;;;;;19.20;102319.00;;;;5080137;28;20366;-70
2022/03/24 11:58:02;;;;;;;31.67;15.93;;;;;18.90;102321.00;;;;5086957;28;20251;-71
2022/03/24 12:00:48;;;;;;;27.90;15.57;;;;;19.20;102320.00;;;;5084730;28;20239;-71
2022/03/24 12:03:49;;;;;;;30.03;16.23;;;;;19.40;102322.00;;;;5073837;28;20301;-71
2022/03/24 12:06:53;;;;;;;30.27;15.93;;;;;19.60;102311.00;;;;5074267;28;20757;-71
2022/03/24 12:09:55;;;;;;;31.00;16.43;;;;;19.50;102314.00;;;;5095015;27;20242;-71
2022/03/24 12:13:02;;;;;;;29.93;17.37;;;;;19.70;102316.00;;;;5095835;27;20234;-69
2022/03/24 12:16:13;;;;;;;29.03;15.73;;;;;19.90;102317.00;;;;5095225;27;20262;-68
2022/03/24 12:19:00;;;;;;;29.40;16.03;;;;;19.80;102309.00;;;;5096421;28;20360;-70
2022/03/24 12:21:49;;;;;;;33.80;16.43;;;;;19.70;102309.00;;;;5107593;27;20234;-70
2022/03/24 12:24:36;;;;;;;31.93;17.00;;;;;19.90;102315.00;;;;5093915;27;20272;-70
2022/03/24 12:27:24;;;;;;;35.13;18.33;;;;;20.00;102310.00;;;;5106876;28;20231;-71
2022/03/24 12:30:11;;;;;;;32.53;16.47;;;;;20.20;102304.00;;;;5106977;28;20247;-70
2022/03/24 12:33:06;;;;;;;30.13;15.97;;;;;20.40;102306.00;;;;5105451;28;20273;-70
2022/03/24 12:35:55;;;;;;;30.70;16.63;;;;;20.30;102309.00;;;;5107920;27;20236;-70
2022/03/24 12:38:54;;;;;;;33.33;16.87;;;;;20.60;102301.00;;;;5095748;28;20348;-70
2022/03/24 12:42:10;;;;;;;29.87;17.07;;;;;20.60;102295.00;;;;5104784;27;20301;-72
2022/03/24 12:44:59;;;;;;;28.97;16.60;;;;;20.70;102295.00;;;;5087356;28;20235;-72
2022/03/24 12:47:47;;;;;;;35.90;17.03;;;;;20.80;102286.00;;;;5084123;28;20733;-71
2022/03/24 12:50:48;;;;;;;32.60;17.93;;;;;21.30;102278.00;;;;5072611;28;20246;-71
2022/03/24 12:53:53;;;;;;;34.80;17.80;;;;;21.30;102286.00;;;;5066705;28;20233;-71
2022/03/24 12:56:42;;;;;;;28.20;16.67;;;;;21.10;102276.00;;;;5087056;28;20234;-69
2022/03/24 12:59:29;;;;;;;31.77;17.80;;;;;21.00;102285.00;;;;5068872;28;20246;-71
2022/03/24 13:02:17;;;;;;;35.07;17.50;;;;;20.80;102281.00;;;;5086344;28;20368;-70
2022/03/24 13:05:11;;;;;;;32.03;17.83;;;;;21.00;102280.00;;;;5084059;28;20230;-70
2022/03/24 13:07:58;;;;;;;34.30;18.07;;;;;21.00;102282.00;;;;5078542;28;20365;-71
2022/03/24 13:10:51;;;;;;;34.33;17.50;;;;;21.30;102284.00;;;;5076330;28;20266;-72
2022/03/24 13:13:49;;;;;;;34.50;17.93;;;;;20.90;102272.00;;;;5069663;28;20246;-71
2022/03/24 13:16:36;;;;;;;33.67;18.03;;;;;21.10;102275.00;;;;5072074;28;20325;-71
2022/03/24 13:19:24;;;;;;;32.87;18.13;;;;;21.50;102275.00;;;;5081585;28;20235;-70
2022/03/24 13:22:19;;;;;;;31.13;16.43;;;;;21.80;102272.00;;;;5085698;28;20312;-71
2022/03/24 13:25:07;;;;;;;32.57;17.97;;;;;21.60;102278.00;;;;5103170;28;20239;-73
2022/03/24 13:27:55;;;;;;;33.07;17.93;;;;;21.50;102272.00;;;;5106730;28;20728;-69
2022/03/24 13:30:41;;;;;;;35.90;18.13;;;;;21.70;102276.00;;;;5093324;28;20377;-70
2022/03/24 13:33:28;;;;;;;30.47;17.40;;;;;21.70;102242.00;;;;5092236;28;20271;-71
2022/03/24 13:36:20;;;;;;;31.30;16.93;;;;;21.70;102272.00;;;;5105740;28;20356;-71
2022/03/24 13:39:07;;;;;;;35.27;18.30;;;;;21.50;102267.00;;;;5105349;28;20332;-71